createdAt,value
2018-12-30T00:01:05.891Z,100.00
2018-12-30T00:03:37.335Z,100.00
2018-12-30T00:06:09.601Z,100.00
2018-12-30T00:08:41.390Z,100.00
2018-12-30T00:11:13.122Z,100.00
2018-12-30T00:13:44.568Z,100.00
2018-12-30T00:16:18.012Z,100.00
2018-12-30T00:18:49.860Z,100.00
2018-12-30T00:21:22.236Z,100.00
2018-12-30T00:23:53.683Z,100.00
2018-12-30T00:26:25.151Z,100.00
2018-12-30T00:28:57.572Z,100.00
2018-12-30T00:31:28.993Z,100.00
2018-12-30T00:34:00.459Z,100.00
2018-12-30T00:36:31.868Z,100.00
2018-12-30T00:39:03.451Z,100.00
2018-12-30T00:41:35.074Z,100.00
2018-12-30T00:44:06.530Z,100.00
2018-12-30T00:46:37.978Z,100.00
2018-12-30T00:49:09.378Z,100.00
2018-12-30T00:51:40.807Z,100.00
2018-12-30T00:54:12.194Z,100.00
2018-12-30T00:56:44.019Z,100.00
2018-12-30T00:59:15.397Z,100.00
2018-12-30T01:01:46.834Z,100.00
2018-12-30T01:04:18.986Z,100.00
2018-12-30T01:06:50.742Z,100.00
2018-12-30T01:09:22.538Z,100.00
2018-12-30T01:11:53.922Z,100.00
2018-12-30T01:14:25.411Z,100.00
2018-12-30T01:16:56.772Z,100.00
2018-12-30T01:19:28.234Z,100.00
2018-12-30T01:22:00.034Z,100.00
2018-12-30T01:24:31.543Z,100.00
2018-12-30T01:27:03.056Z,100.00
2018-12-30T01:29:34.466Z,100.00
2018-12-30T01:32:06.107Z,100.00
2018-12-30T01:34:37.553Z,100.00
2018-12-30T01:37:08.946Z,100.00
2018-12-30T01:39:40.357Z,100.00
2018-12-30T01:42:11.746Z,100.00
2018-12-30T01:44:43.190Z,100.00
2018-12-30T01:47:14.548Z,100.00
2018-12-30T01:49:46.365Z,100.00
2018-12-30T01:52:18.164Z,100.00
2018-12-30T01:54:49.906Z,100.00
2018-12-30T01:57:21.659Z,100.00
2018-12-30T01:59:53.404Z,100.00
2018-12-30T02:02:24.794Z,100.00
2018-12-30T02:04:56.193Z,100.00
2018-12-30T02:07:27.965Z,100.00
2018-12-30T02:09:59.407Z,100.00
2018-12-30T02:12:30.793Z,100.00
2018-12-30T02:15:02.205Z,100.00
2018-12-30T02:17:33.692Z,100.00
2018-12-30T02:20:05.796Z,100.00
2018-12-30T02:22:37.491Z,100.00
2018-12-30T02:25:08.928Z,100.00
2018-12-30T02:27:40.312Z,100.00
2018-12-30T02:30:11.741Z,100.00
2018-12-30T02:32:45.452Z,100.00
2018-12-30T02:35:16.988Z,100.00
2018-12-30T02:37:48.482Z,100.00
2018-12-30T02:40:19.900Z,100.00
2018-12-30T02:42:51.895Z,100.00
2018-12-30T02:45:23.397Z,100.00
2018-12-30T02:47:54.804Z,100.00
2018-12-30T02:50:26.197Z,100.00
2018-12-30T02:52:57.600Z,100.00
2018-12-30T02:55:29.038Z,100.00
2018-12-30T02:58:00.417Z,100.00
2018-12-30T03:00:31.817Z,100.00
2018-12-30T03:03:04.775Z,100.00
2018-12-30T03:05:36.126Z,100.00
2018-12-30T03:08:07.536Z,100.00
2018-12-30T03:10:38.943Z,100.00
2018-12-30T03:13:10.336Z,100.00
2018-12-30T03:15:41.726Z,100.00
2018-12-30T03:18:13.503Z,100.00
2018-12-30T03:20:44.954Z,100.00
2018-12-30T03:23:16.341Z,100.00
2018-12-30T03:25:47.746Z,100.00
2018-12-30T03:28:19.139Z,100.00
2018-12-30T03:30:50.559Z,100.00
2018-12-30T03:33:21.965Z,100.00
2018-12-30T03:35:53.973Z,100.00
2018-12-30T03:38:25.734Z,100.00
2018-12-30T03:40:57.314Z,100.00
2018-12-30T03:43:28.708Z,100.00
2018-12-30T03:46:00.081Z,100.00
2018-12-30T03:48:31.497Z,100.00
2018-12-30T03:51:02.879Z,100.00
2018-12-30T03:53:34.326Z,100.00
2018-12-30T03:56:05.751Z,100.00
2018-12-30T03:58:37.138Z,100.00
2018-12-30T04:01:08.556Z,100.00
2018-12-30T04:03:39.967Z,100.00
2018-12-30T04:06:11.375Z,100.00
2018-12-30T04:08:42.805Z,100.00
2018-12-30T04:11:14.166Z,100.00
2018-12-30T04:13:45.625Z,100.00
2018-12-30T04:16:17.053Z,100.00
2018-12-30T04:18:48.432Z,100.00
2018-12-30T04:21:19.822Z,100.00
2018-12-30T04:23:51.229Z,100.00
2018-12-30T04:26:22.639Z,100.00
2018-12-30T04:28:54.343Z,100.00
2018-12-30T04:31:25.759Z,100.00
2018-12-30T04:33:57.132Z,100.00
2018-12-30T04:36:28.526Z,100.00
2018-12-30T04:38:59.933Z,100.00
2018-12-30T04:41:31.345Z,100.00
2018-12-30T04:44:02.781Z,100.00
2018-12-30T04:46:34.144Z,100.00
2018-12-30T04:49:05.560Z,100.00
2018-12-30T04:51:36.933Z,100.00
2018-12-30T04:54:08.673Z,100.00
2018-12-30T04:56:40.039Z,100.00
2018-12-30T04:59:11.762Z,100.00
2018-12-30T05:01:43.138Z,100.00
2018-12-30T05:04:14.550Z,100.00
2018-12-30T05:06:45.941Z,100.00
2018-12-30T05:09:17.562Z,100.00
2018-12-30T05:11:48.945Z,100.00
2018-12-30T05:14:20.357Z,100.00
2018-12-30T05:16:51.739Z,100.00
2018-12-30T05:19:23.739Z,100.00
2018-12-30T05:21:55.073Z,100.00
2018-12-30T05:24:26.505Z,100.00
2018-12-30T05:26:57.852Z,100.00
2018-12-30T05:29:29.290Z,100.00
2018-12-30T05:32:00.695Z,100.00
2018-12-30T05:34:32.060Z,100.00
2018-12-30T05:37:03.474Z,100.00
2018-12-30T05:39:35.817Z,100.00
2018-12-30T05:42:07.215Z,100.00
2018-12-30T05:44:38.598Z,100.00
2018-12-30T05:47:12.721Z,100.00
2018-12-30T05:49:44.140Z,100.00
2018-12-30T05:52:16.547Z,100.00
2018-12-30T05:54:47.983Z,100.00
2018-12-30T05:57:19.314Z,100.00
2018-12-30T05:59:50.778Z,100.00
2018-12-30T06:02:22.192Z,100.00
2018-12-30T06:04:53.566Z,100.00
2018-12-30T06:07:24.965Z,100.00
2018-12-30T06:09:56.354Z,100.00
2018-12-30T06:12:27.969Z,100.00
2018-12-30T06:14:59.384Z,100.00
2018-12-30T06:17:30.779Z,100.00
2018-12-30T06:20:02.176Z,100.00
2018-12-30T06:22:33.950Z,100.00
2018-12-30T06:25:05.395Z,100.00
2018-12-30T06:27:36.849Z,100.00
2018-12-30T06:30:08.289Z,100.00
2018-12-30T06:32:39.638Z,100.00
2018-12-30T06:35:11.062Z,100.00
2018-12-30T06:37:42.525Z,100.00
2018-12-30T06:40:13.981Z,100.00
2018-12-30T06:42:45.416Z,100.00
2018-12-30T06:45:16.779Z,100.00
2018-12-30T06:47:48.224Z,100.00
2018-12-30T06:50:19.571Z,100.00
2018-12-30T06:52:57.549Z,100.00
2018-12-30T06:55:24.458Z,100.00
2018-12-30T06:57:55.864Z,100.00
2018-12-30T07:00:27.269Z,100.00
2018-12-30T07:02:58.657Z,100.00
2018-12-30T07:05:30.028Z,100.00
2018-12-30T07:08:01.472Z,100.00
2018-12-30T07:10:33.907Z,100.00
2018-12-30T07:13:05.277Z,100.00
2018-12-30T07:15:36.643Z,100.00
2018-12-30T07:18:08.088Z,100.00
2018-12-30T07:20:39.647Z,100.00
2018-12-30T07:23:11.080Z,100.00
2018-12-30T07:25:42.439Z,100.00
2018-12-30T07:28:13.887Z,100.00
2018-12-30T07:30:45.613Z,100.00
2018-12-30T07:33:16.976Z,100.00
2018-12-30T07:35:48.377Z,100.00
2018-12-30T07:38:20.153Z,100.00
2018-12-30T07:40:51.586Z,100.00
2018-12-30T07:43:23.233Z,100.00
2018-12-30T07:45:55.038Z,100.00
2018-12-30T07:48:26.412Z,100.00
2018-12-30T07:50:57.814Z,100.00
2018-12-30T07:53:29.878Z,100.00
2018-12-30T07:56:01.347Z,100.00
2018-12-30T07:58:32.998Z,100.00
2018-12-30T08:01:04.422Z,100.00
2018-12-30T08:03:35.853Z,100.00
2018-12-30T08:06:07.210Z,100.00
2018-12-30T08:08:39.731Z,100.00
2018-12-30T08:11:11.160Z,100.00
2018-12-30T08:13:42.616Z,100.00
2018-12-30T08:16:14.045Z,100.00
2018-12-30T08:18:45.547Z,100.00
2018-12-30T08:21:16.956Z,100.00
2018-12-30T08:23:48.395Z,100.00
2018-12-30T08:26:19.849Z,100.00
2018-12-30T08:28:51.931Z,100.00
2018-12-30T08:31:24.301Z,100.00
2018-12-30T08:33:55.655Z,100.00
2018-12-30T08:36:27.092Z,100.00
2018-12-30T08:38:58.860Z,100.00
2018-12-30T08:41:31.216Z,100.00
2018-12-30T08:44:02.901Z,100.00
2018-12-30T08:46:34.326Z,100.00
2018-12-30T08:49:05.787Z,100.00
2018-12-30T08:51:37.172Z,100.00
2018-12-30T08:54:08.634Z,100.00
2018-12-30T08:56:39.982Z,100.00
2018-12-30T08:59:11.386Z,100.00
2018-12-30T09:01:42.779Z,100.00
2018-12-30T09:04:14.503Z,100.00
2018-12-30T09:06:45.846Z,100.00
2018-12-30T09:09:17.292Z,100.00
2018-12-30T09:11:48.715Z,100.00
2018-12-30T09:14:20.215Z,100.00
2018-12-30T09:16:51.594Z,100.00
2018-12-30T09:19:22.994Z,100.00
2018-12-30T09:21:54.409Z,100.00
2018-12-30T09:24:25.823Z,100.00
2018-12-30T09:26:57.561Z,100.00
2018-12-30T09:29:29.026Z,100.00
2018-12-30T09:32:00.455Z,100.00
2018-12-30T09:34:31.924Z,100.00
2018-12-30T09:37:03.331Z,100.00
2018-12-30T09:39:34.765Z,100.00
2018-12-30T09:42:06.211Z,100.00
2018-12-30T09:44:37.637Z,100.00
2018-12-30T09:47:09.047Z,100.00
2018-12-30T09:49:40.689Z,100.00
2018-12-30T09:52:12.148Z,100.00
2018-12-30T09:54:43.527Z,100.00
2018-12-30T09:57:14.926Z,100.00
2018-12-30T09:59:46.348Z,100.00
2018-12-30T10:02:17.754Z,100.00
2018-12-30T10:04:50.459Z,100.00
2018-12-30T10:07:21.935Z,100.00
2018-12-30T10:09:53.355Z,100.00
2018-12-30T10:12:25.150Z,100.00
2018-12-30T10:14:56.579Z,100.00
2018-12-30T10:17:27.998Z,100.00
2018-12-30T10:19:59.464Z,100.00
2018-12-30T10:22:31.287Z,100.00
2018-12-30T10:25:02.742Z,100.00
2018-12-30T10:27:34.198Z,100.00
2018-12-30T10:30:07.011Z,100.00
2018-12-30T10:32:38.457Z,100.00
2018-12-30T10:35:10.583Z,100.00
2018-12-30T10:37:42.152Z,100.00
2018-12-30T10:40:14.109Z,100.00
2018-12-30T10:42:46.469Z,100.00
2018-12-30T10:45:17.877Z,100.00
2018-12-30T10:47:49.277Z,100.00
2018-12-30T10:50:20.703Z,100.00
2018-12-30T10:52:52.077Z,100.00
2018-12-30T10:55:23.646Z,100.00
2018-12-30T10:57:55.151Z,100.00
2018-12-30T11:00:26.948Z,100.00
2018-12-30T11:02:58.332Z,100.00
2018-12-30T11:05:29.872Z,100.00
2018-12-30T11:08:01.213Z,100.00
2018-12-30T11:10:32.765Z,100.00
2018-12-30T11:13:04.237Z,100.00
2018-12-30T11:15:35.717Z,100.00
2018-12-30T11:18:07.227Z,100.00
2018-12-30T11:20:38.762Z,100.00
2018-12-30T11:23:10.117Z,100.00
2018-12-30T11:25:41.509Z,100.00
2018-12-30T11:28:12.890Z,100.00
2018-12-30T11:30:44.397Z,100.00
2018-12-30T11:33:15.754Z,100.00
2018-12-30T11:35:47.268Z,100.00
2018-12-30T11:38:20.238Z,100.00
2018-12-30T11:40:51.769Z,100.00
2018-12-30T11:43:23.161Z,100.00
2018-12-30T11:45:55.584Z,100.00
2018-12-30T11:48:27.036Z,100.00
2018-12-30T11:50:58.736Z,100.00
2018-12-30T11:53:30.433Z,100.00
2018-12-30T11:56:01.880Z,100.00
2018-12-30T11:58:33.268Z,100.00
2018-12-30T12:01:04.820Z,100.00
2018-12-30T12:03:36.181Z,100.00
2018-12-30T12:06:07.591Z,100.00
2018-12-30T12:08:38.975Z,100.00
2018-12-30T12:11:10.489Z,100.00
2018-12-30T12:13:41.888Z,100.00
2018-12-30T12:16:13.443Z,100.00
2018-12-30T12:18:44.899Z,100.00
2018-12-30T12:21:16.593Z,100.00
2018-12-30T12:23:48.359Z,100.00
2018-12-30T12:26:19.806Z,100.00
2018-12-30T12:28:51.200Z,100.00
2018-12-30T12:31:22.732Z,100.00
2018-12-30T12:33:54.320Z,100.00
2018-12-30T12:36:25.810Z,100.00
2018-12-30T12:38:57.338Z,100.00
2018-12-30T12:41:28.997Z,100.00
2018-12-30T12:44:00.469Z,99.24
2018-12-30T12:46:31.954Z,97.00
2018-12-30T12:49:04.020Z,96.06
2018-12-30T12:51:35.547Z,96.50
2018-12-30T12:54:06.971Z,97.06
2018-12-30T12:56:38.475Z,97.06
2018-12-30T12:59:09.876Z,97.58
2018-12-30T13:01:41.428Z,97.83
2018-12-30T13:04:13.229Z,97.75
2018-12-30T13:06:44.650Z,98.25
2018-12-30T13:09:16.092Z,99.94
2018-12-30T13:11:47.866Z,99.76
2018-12-30T13:14:19.367Z,99.60
2018-12-30T13:16:50.809Z,100.00
2018-12-30T13:19:22.311Z,100.00
2018-12-30T13:21:53.860Z,100.00
2018-12-30T13:24:25.218Z,100.00
2018-12-30T13:26:56.640Z,100.00
2018-12-30T13:29:28.055Z,100.00
2018-12-30T13:31:59.516Z,100.00
2018-12-30T13:34:30.912Z,100.00
2018-12-30T13:37:02.400Z,100.00
2018-12-30T13:39:33.783Z,100.00
2018-12-30T13:42:05.442Z,100.00
2018-12-30T13:44:38.096Z,100.00
2018-12-30T13:47:09.537Z,100.00
2018-12-30T13:49:40.959Z,100.00
2018-12-30T13:52:12.399Z,100.00
2018-12-30T13:54:47.670Z,100.00
2018-12-30T13:57:17.182Z,100.00
2018-12-30T13:59:48.932Z,100.00
2018-12-30T14:02:20.323Z,100.00
2018-12-30T14:04:51.865Z,100.00
2018-12-30T14:07:23.273Z,100.00
2018-12-30T14:09:55.143Z,100.00
2018-12-30T14:12:26.634Z,100.00
2018-12-30T14:14:58.361Z,100.00
2018-12-30T14:17:30.144Z,100.00
2018-12-30T14:20:03.711Z,100.00
2018-12-30T14:22:35.223Z,100.00
2018-12-30T14:25:07.096Z,100.00
2018-12-30T14:27:38.525Z,100.00
2018-12-30T14:30:11.052Z,100.00
2018-12-30T14:32:42.450Z,100.00
2018-12-30T14:35:13.855Z,100.00
2018-12-30T14:37:45.665Z,100.00
2018-12-30T14:40:17.197Z,100.00
2018-12-30T14:42:48.548Z,100.00
2018-12-30T14:45:19.987Z,100.00
2018-12-30T14:47:51.410Z,100.00
2018-12-30T14:50:22.921Z,100.00
2018-12-30T14:52:54.400Z,100.00
2018-12-30T14:55:25.944Z,100.00
2018-12-30T14:57:57.401Z,100.00
2018-12-30T15:00:28.902Z,100.00
2018-12-30T15:03:01.404Z,100.00
2018-12-30T15:05:32.819Z,100.00
2018-12-30T15:08:04.210Z,100.00
2018-12-30T15:10:35.613Z,100.00
2018-12-30T15:13:07.004Z,100.00
2018-12-30T15:15:38.408Z,100.00
2018-12-30T15:18:11.035Z,100.00
2018-12-30T15:20:42.603Z,100.00
2018-12-30T15:23:14.047Z,100.00
2018-12-30T15:25:45.432Z,100.00
2018-12-30T15:28:16.848Z,100.00
2018-12-30T15:30:48.333Z,100.00
2018-12-30T15:33:19.745Z,100.00
2018-12-30T15:35:51.267Z,100.00
2018-12-30T15:38:23.104Z,100.00
2018-12-30T15:40:54.546Z,100.00
2018-12-30T15:43:26.318Z,100.00
2018-12-30T15:45:57.769Z,100.00
2018-12-30T15:48:29.335Z,100.00
2018-12-30T15:51:00.865Z,100.00
2018-12-30T15:53:32.548Z,100.00
2018-12-30T15:56:03.995Z,100.00
2018-12-30T15:58:35.427Z,100.00
2018-12-30T16:01:07.128Z,100.00
2018-12-30T16:03:38.954Z,100.00
2018-12-30T16:06:10.442Z,100.00
2018-12-30T16:08:41.806Z,100.00
2018-12-30T16:11:13.298Z,100.00
2018-12-30T16:13:44.693Z,100.00
2018-12-30T16:16:16.096Z,100.00
2018-12-30T16:18:47.483Z,100.00
2018-12-30T16:21:18.899Z,100.00
2018-12-30T16:23:50.308Z,100.00
2018-12-30T16:26:21.725Z,100.00
2018-12-30T16:28:53.464Z,100.00
2018-12-30T16:31:28.197Z,100.00
2018-12-30T16:33:58.063Z,100.00
2018-12-30T16:36:29.557Z,100.00
2018-12-30T16:39:00.996Z,100.00
2018-12-30T16:41:34.094Z,100.00
2018-12-30T16:44:05.601Z,100.00
2018-12-30T16:46:37.096Z,100.00
2018-12-30T16:49:08.433Z,100.00
2018-12-30T16:51:39.892Z,100.00
2018-12-30T16:54:11.300Z,100.00
2018-12-30T16:56:42.676Z,100.00
2018-12-30T16:59:14.138Z,100.00
2018-12-30T17:01:45.952Z,100.00
2018-12-30T17:04:17.389Z,100.00
2018-12-30T17:06:48.872Z,100.00
2018-12-30T17:09:20.305Z,100.00
2018-12-30T17:11:51.898Z,100.00
2018-12-30T17:14:23.315Z,100.00
2018-12-30T17:16:55.750Z,100.00
2018-12-30T17:19:27.142Z,100.00
2018-12-30T17:22:00.179Z,100.00
2018-12-30T17:24:31.696Z,100.00
2018-12-30T17:27:03.305Z,100.00
2018-12-30T17:29:34.809Z,100.00
2018-12-30T17:32:06.263Z,100.00
2018-12-30T17:34:37.724Z,100.00
2018-12-30T17:37:09.219Z,100.00
2018-12-30T17:39:40.772Z,100.00
2018-12-30T17:42:12.220Z,100.00
2018-12-30T17:44:43.633Z,100.00
2018-12-30T17:47:15.136Z,100.00
2018-12-30T17:49:46.529Z,100.00
2018-12-30T17:52:18.499Z,100.00
2018-12-30T17:54:49.932Z,100.00
2018-12-30T17:57:21.483Z,100.00
2018-12-30T17:59:52.987Z,100.00
2018-12-30T18:02:24.595Z,100.00
2018-12-30T18:04:57.597Z,100.00
2018-12-30T18:07:29.251Z,100.00
2018-12-30T18:10:01.197Z,100.00
2018-12-30T18:12:32.865Z,100.00
2018-12-30T18:15:04.597Z,100.00
2018-12-30T18:17:41.401Z,100.00
2018-12-30T18:20:09.278Z,100.00
2018-12-30T18:22:40.889Z,100.00
2018-12-30T18:25:12.294Z,100.00
2018-12-30T18:27:44.045Z,100.00
2018-12-30T18:30:15.588Z,100.00
2018-12-30T18:32:47.192Z,100.00
2018-12-30T18:35:18.618Z,100.00
2018-12-30T18:37:50.089Z,100.00
2018-12-30T18:40:22.787Z,100.00
2018-12-30T18:42:55.305Z,100.00
2018-12-30T18:45:26.799Z,100.00
2018-12-30T18:47:58.212Z,100.00
2018-12-30T18:50:29.660Z,100.00
2018-12-30T18:53:01.688Z,100.00
2018-12-30T18:55:33.389Z,100.00
2018-12-30T18:58:04.920Z,100.00
2018-12-30T19:00:36.284Z,100.00
2018-12-30T19:03:07.856Z,100.00
2018-12-30T19:05:39.321Z,100.00
2018-12-30T19:08:11.063Z,100.00
2018-12-30T19:10:42.588Z,100.00
2018-12-30T19:13:14.418Z,100.00
2018-12-30T19:15:46.312Z,100.00
2018-12-30T19:18:17.791Z,100.00
2018-12-30T19:20:49.229Z,100.00
2018-12-30T19:23:20.791Z,100.00
2018-12-30T19:25:52.167Z,100.00
2018-12-30T19:28:24.408Z,100.00
2018-12-30T19:30:56.178Z,100.00
2018-12-30T19:33:29.935Z,100.00
2018-12-30T19:36:02.424Z,100.00
2018-12-30T19:38:33.938Z,100.00
2018-12-30T19:41:05.445Z,100.00
2018-12-30T19:43:36.931Z,100.00
2018-12-30T19:46:08.305Z,100.00
2018-12-30T19:48:39.859Z,100.00
2018-12-30T19:51:11.255Z,100.00
2018-12-30T19:53:43.096Z,100.00
2018-12-30T19:56:21.723Z,100.00
2018-12-30T19:58:47.799Z,100.00
2018-12-30T20:01:20.620Z,100.00
2018-12-30T20:03:52.080Z,100.00
2018-12-30T20:06:23.561Z,100.00
2018-12-30T20:08:56.455Z,100.00
2018-12-30T20:11:27.984Z,100.00
2018-12-30T20:13:59.449Z,100.00
2018-12-30T20:16:31.216Z,100.00
2018-12-30T20:19:02.667Z,100.00
2018-12-30T20:21:34.089Z,100.00
2018-12-30T20:24:05.573Z,100.00
2018-12-30T20:26:36.984Z,100.00
2018-12-30T20:29:08.454Z,100.00
2018-12-30T20:31:41.131Z,100.00
2018-12-30T20:34:12.904Z,100.00
2018-12-30T20:36:44.631Z,100.00
2018-12-30T20:39:17.401Z,100.00
2018-12-30T20:41:48.961Z,100.00
2018-12-30T20:44:20.437Z,100.00
2018-12-30T20:46:51.825Z,100.00
2018-12-30T20:49:23.362Z,100.00
2018-12-30T20:51:54.838Z,100.00
2018-12-30T20:54:26.427Z,100.00
2018-12-30T20:56:57.926Z,100.00
2018-12-30T20:59:29.614Z,100.00
2018-12-30T21:02:01.068Z,100.00
2018-12-30T21:04:32.571Z,100.00
2018-12-30T21:07:05.089Z,100.00
2018-12-30T21:09:36.633Z,100.00
2018-12-30T21:12:08.048Z,100.00
2018-12-30T21:14:39.536Z,100.00
2018-12-30T21:17:10.981Z,100.00
2018-12-30T21:19:43.217Z,100.00
2018-12-30T21:22:15.272Z,100.00
2018-12-30T21:24:46.866Z,100.00
2018-12-30T21:27:18.309Z,100.00
2018-12-30T21:29:50.020Z,100.00
2018-12-30T21:32:21.482Z,100.00
2018-12-30T21:34:53.330Z,100.00
2018-12-30T21:37:25.165Z,100.00
2018-12-30T21:39:56.657Z,100.00
2018-12-30T21:42:28.213Z,100.00
2018-12-30T21:45:00.600Z,100.00
2018-12-30T21:47:32.111Z,100.00
2018-12-30T21:50:04.122Z,100.00
2018-12-30T21:52:35.883Z,100.00
2018-12-30T21:55:07.516Z,100.00
2018-12-30T21:57:39.597Z,100.00
2018-12-30T22:00:11.428Z,100.00
2018-12-30T22:02:43.229Z,100.00
2018-12-30T22:05:15.866Z,100.00
2018-12-30T22:07:47.480Z,100.00
2018-12-30T22:10:21.062Z,100.00
2018-12-30T22:12:52.619Z,100.00
2018-12-30T22:15:24.497Z,100.00
2018-12-30T22:17:56.324Z,100.00
2018-12-30T22:20:27.873Z,100.00
2018-12-30T22:22:59.389Z,100.00
2018-12-30T22:25:31.059Z,100.00
2018-12-30T22:28:03.164Z,100.00
2018-12-30T22:30:34.750Z,100.00
2018-12-30T22:33:06.309Z,100.00
2018-12-30T22:35:38.239Z,100.00
2018-12-30T22:38:11.111Z,100.00
2018-12-30T22:40:42.764Z,100.00
2018-12-30T22:43:14.767Z,100.00
2018-12-30T22:45:46.408Z,100.00
2018-12-30T22:48:17.916Z,100.00
2018-12-30T22:50:49.452Z,100.00
2018-12-30T22:53:20.849Z,100.00
2018-12-30T22:55:53.147Z,100.00
2018-12-30T22:58:24.717Z,100.00
2018-12-30T23:01:07.225Z,100.00
2018-12-30T23:03:38.634Z,100.00
2018-12-30T23:06:10.117Z,100.00
2018-12-30T23:08:43.221Z,100.00
2018-12-30T23:11:14.744Z,100.00
2018-12-30T23:13:46.171Z,100.00
2018-12-30T23:16:17.934Z,100.00
2018-12-30T23:18:49.419Z,100.00
2018-12-30T23:21:20.939Z,100.00
2018-12-30T23:23:52.422Z,100.00
2018-12-30T23:26:23.907Z,100.00
2018-12-30T23:28:55.270Z,100.00
2018-12-30T23:31:26.729Z,100.00
2018-12-30T23:33:58.173Z,100.00
2018-12-30T23:36:29.725Z,100.00
2018-12-30T23:39:01.271Z,100.00
2018-12-30T23:41:34.282Z,100.00
2018-12-30T23:44:06.664Z,100.00
2018-12-30T23:46:38.272Z,100.00
2018-12-30T23:49:09.621Z,100.00
2018-12-30T23:51:40.986Z,100.00
2018-12-30T23:54:12.433Z,100.00
2018-12-30T23:56:43.864Z,100.00
2018-12-30T23:59:15.318Z,100.00
